sensor_id;sensor_type;location;lat;lon;timestamp;P1;durP1;ratioP1;P2;durP2;ratioP2
9880;SDS011;4979;51.014;6.678;2024-01-16T00:00:04;12.80;;;7.57;;
9880;SDS011;4979;51.014;6.678;2024-01-16T00:02:31;12.68;;;6.80;;
9880;SDS011;4979;51.014;6.678;2024-01-16T00:04:57;16.00;;;7.38;;
9880;SDS011;4979;51.014;6.678;2024-01-16T00:07:22;12.93;;;6.22;;
9880;SDS011;4979;51.014;6.678;2024-01-16T00:09:48;13.38;;;5.50;;
9880;SDS011;4979;51.014;6.678;2024-01-16T00:12:17;8.38;;;4.75;;
9880;SDS011;4979;51.014;6.678;2024-01-16T00:14:43;8.82;;;5.53;;
9880;SDS011;4979;51.014;6.678;2024-01-16T00:17:08;8.68;;;4.82;;
9880;SDS011;4979;51.014;6.678;2024-01-16T00:19:34;16.63;;;7.10;;
9880;SDS011;4979;51.014;6.678;2024-01-16T00:22:00;12.20;;;6.03;;
9880;SDS011;4979;51.014;6.678;2024-01-16T00:24:27;6.57;;;4.38;;
9880;SDS011;4979;51.014;6.678;2024-01-16T00:26:53;11.13;;;5.32;;
9880;SDS011;4979;51.014;6.678;2024-01-16T00:29:19;13.20;;;6.07;;
9880;SDS011;4979;51.014;6.678;2024-01-16T00:31:45;10.30;;;5.43;;
9880;SDS011;4979;51.014;6.678;2024-01-16T00:34:10;15.50;;;6.22;;
9880;SDS011;4979;51.014;6.678;2024-01-16T00:36:36;8.98;;;4.43;;
9880;SDS011;4979;51.014;6.678;2024-01-16T00:39:02;14.32;;;6.25;;
9880;SDS011;4979;51.014;6.678;2024-01-16T00:41:28;12.35;;;5.35;;
9880;SDS011;4979;51.014;6.678;2024-01-16T00:43:53;15.98;;;5.68;;
9880;SDS011;4979;51.014;6.678;2024-01-16T00:46:19;10.15;;;5.20;;
9880;SDS011;4979;51.014;6.678;2024-01-16T00:48:45;13.00;;;4.82;;
9880;SDS011;4979;51.014;6.678;2024-01-16T00:51:11;13.07;;;5.35;;
9880;SDS011;4979;51.014;6.678;2024-01-16T00:53:43;13.70;;;5.90;;
9880;SDS011;4979;51.014;6.678;2024-01-16T00:56:09;13.43;;;6.30;;
9880;SDS011;4979;51.014;6.678;2024-01-16T00:58:35;12.57;;;4.80;;
9880;SDS011;4979;51.014;6.678;2024-01-16T01:01:01;8.95;;;4.60;;
9880;SDS011;4979;51.014;6.678;2024-01-16T01:03:26;14.32;;;6.10;;
9880;SDS011;4979;51.014;6.678;2024-01-16T01:05:52;10.13;;;5.05;;
9880;SDS011;4979;51.014;6.678;2024-01-16T01:08:18;9.15;;;5.25;;
9880;SDS011;4979;51.014;6.678;2024-01-16T01:10:44;12.48;;;4.88;;
9880;SDS011;4979;51.014;6.678;2024-01-16T01:13:09;14.45;;;5.28;;
9880;SDS011;4979;51.014;6.678;2024-01-16T01:15:35;14.18;;;5.43;;
9880;SDS011;4979;51.014;6.678;2024-01-16T01:18:00;9.35;;;5.68;;
9880;SDS011;4979;51.014;6.678;2024-01-16T01:20:26;4.38;;;3.45;;
9880;SDS011;4979;51.014;6.678;2024-01-16T01:22:51;9.38;;;4.65;;
9880;SDS011;4979;51.014;6.678;2024-01-16T01:25:17;8.70;;;4.80;;
9880;SDS011;4979;51.014;6.678;2024-01-16T01:27:43;12.52;;;4.80;;
9880;SDS011;4979;51.014;6.678;2024-01-16T01:30:08;10.32;;;3.70;;
9880;SDS011;4979;51.014;6.678;2024-01-16T01:32:37;10.55;;;5.38;;
9880;SDS011;4979;51.014;6.678;2024-01-16T01:35:04;11.65;;;5.40;;
9880;SDS011;4979;51.014;6.678;2024-01-16T01:37:30;8.30;;;4.47;;
9880;SDS011;4979;51.014;6.678;2024-01-16T01:39:56;8.98;;;5.65;;
9880;SDS011;4979;51.014;6.678;2024-01-16T01:42:21;11.57;;;5.72;;
9880;SDS011;4979;51.014;6.678;2024-01-16T01:44:47;10.95;;;5.38;;
9880;SDS011;4979;51.014;6.678;2024-01-16T01:47:13;10.13;;;5.47;;
9880;SDS011;4979;51.014;6.678;2024-01-16T01:49:39;8.57;;;5.97;;
9880;SDS011;4979;51.014;6.678;2024-01-16T01:52:06;9.10;;;4.85;;
9880;SDS011;4979;51.014;6.678;2024-01-16T01:54:33;8.52;;;4.45;;
9880;SDS011;4979;51.014;6.678;2024-01-16T01:57:01;9.15;;;5.50;;
9880;SDS011;4979;51.014;6.678;2024-01-16T01:59:27;10.45;;;4.68;;
9880;SDS011;4979;51.014;6.678;2024-01-16T02:01:54;11.38;;;4.95;;
9880;SDS011;4979;51.014;6.678;2024-01-16T02:04:21;19.50;;;6.15;;
9880;SDS011;4979;51.014;6.678;2024-01-16T02:06:48;13.35;;;4.75;;
9880;SDS011;4979;51.014;6.678;2024-01-16T02:09:14;9.80;;;5.20;;
9880;SDS011;4979;51.014;6.678;2024-01-16T02:11:43;8.88;;;4.78;;
9880;SDS011;4979;51.014;6.678;2024-01-16T02:14:09;12.50;;;5.20;;
9880;SDS011;4979;51.014;6.678;2024-01-16T02:16:39;11.88;;;4.88;;
9880;SDS011;4979;51.014;6.678;2024-01-16T02:19:06;15.40;;;4.55;;
9880;SDS011;4979;51.014;6.678;2024-01-16T02:21:39;8.98;;;4.93;;
9880;SDS011;4979;51.014;6.678;2024-01-16T02:24:06;5.97;;;3.70;;
9880;SDS011;4979;51.014;6.678;2024-01-16T02:26:34;6.03;;;3.80;;
9880;SDS011;4979;51.014;6.678;2024-01-16T02:29:00;8.93;;;3.67;;
9880;SDS011;4979;51.014;6.678;2024-01-16T02:31:27;7.70;;;3.90;;
9880;SDS011;4979;51.014;6.678;2024-01-16T02:33:53;9.65;;;4.70;;
9880;SDS011;4979;51.014;6.678;2024-01-16T02:36:18;15.02;;;5.18;;
9880;SDS011;4979;51.014;6.678;2024-01-16T02:38:44;12.95;;;4.80;;
9880;SDS011;4979;51.014;6.678;2024-01-16T02:41:11;7.97;;;4.57;;
9880;SDS011;4979;51.014;6.678;2024-01-16T02:43:41;10.02;;;5.28;;
9880;SDS011;4979;51.014;6.678;2024-01-16T02:46:06;9.48;;;4.63;;
9880;SDS011;4979;51.014;6.678;2024-01-16T02:48:33;14.93;;;4.88;;
9880;SDS011;4979;51.014;6.678;2024-01-16T02:50:59;11.73;;;4.85;;
9880;SDS011;4979;51.014;6.678;2024-01-16T02:53:25;9.23;;;5.25;;
9880;SDS011;4979;51.014;6.678;2024-01-16T02:55:51;10.40;;;5.70;;
9880;SDS011;4979;51.014;6.678;2024-01-16T02:58:18;11.25;;;4.95;;
9880;SDS011;4979;51.014;6.678;2024-01-16T03:00:43;10.82;;;4.75;;
9880;SDS011;4979;51.014;6.678;2024-01-16T03:03:09;9.20;;;5.07;;
9880;SDS011;4979;51.014;6.678;2024-01-16T03:05:35;14.65;;;5.57;;
9880;SDS011;4979;51.014;6.678;2024-01-16T03:08:01;11.23;;;4.65;;
9880;SDS011;4979;51.014;6.678;2024-01-16T03:10:27;13.77;;;5.70;;
9880;SDS011;4979;51.014;6.678;2024-01-16T03:12:52;9.52;;;4.75;;
9880;SDS011;4979;51.014;6.678;2024-01-16T03:15:18;11.23;;;4.93;;
9880;SDS011;4979;51.014;6.678;2024-01-16T03:17:43;8.85;;;3.90;;
9880;SDS011;4979;51.014;6.678;2024-01-16T03:20:09;12.52;;;4.95;;
9880;SDS011;4979;51.014;6.678;2024-01-16T03:22:35;8.63;;;4.90;;
9880;SDS011;4979;51.014;6.678;2024-01-16T03:25:00;11.80;;;5.10;;
9880;SDS011;4979;51.014;6.678;2024-01-16T03:27:27;14.07;;;5.63;;
9880;SDS011;4979;51.014;6.678;2024-01-16T03:29:53;11.10;;;5.32;;
9880;SDS011;4979;51.014;6.678;2024-01-16T03:32:18;11.23;;;4.85;;
9880;SDS011;4979;51.014;6.678;2024-01-16T03:34:44;9.52;;;4.30;;
9880;SDS011;4979;51.014;6.678;2024-01-16T03:37:10;8.45;;;5.25;;
9880;SDS011;4979;51.014;6.678;2024-01-16T03:39:35;16.52;;;5.53;;
9880;SDS011;4979;51.014;6.678;2024-01-16T03:42:01;7.25;;;4.90;;
9880;SDS011;4979;51.014;6.678;2024-01-16T03:44:26;8.93;;;4.88;;
9880;SDS011;4979;51.014;6.678;2024-01-16T03:46:52;9.20;;;6.05;;
9880;SDS011;4979;51.014;6.678;2024-01-16T03:49:17;10.18;;;5.57;;
9880;SDS011;4979;51.014;6.678;2024-01-16T03:51:43;7.57;;;4.60;;
9880;SDS011;4979;51.014;6.678;2024-01-16T03:54:11;11.50;;;6.70;;
9880;SDS011;4979;51.014;6.678;2024-01-16T03:56:38;7.07;;;4.65;;
9880;SDS011;4979;51.014;6.678;2024-01-16T03:59:04;11.68;;;5.75;;
9880;SDS011;4979;51.014;6.678;2024-01-16T04:01:30;10.45;;;5.28;;
9880;SDS011;4979;51.014;6.678;2024-01-16T04:03:57;12.98;;;5.38;;
9880;SDS011;4979;51.014;6.678;2024-01-16T04:06:23;11.23;;;6.03;;
9880;SDS011;4979;51.014;6.678;2024-01-16T04:08:48;13.02;;;5.65;;
9880;SDS011;4979;51.014;6.678;2024-01-16T04:11:14;8.38;;;4.90;;
9880;SDS011;4979;51.014;6.678;2024-01-16T04:13:40;11.70;;;5.55;;
9880;SDS011;4979;51.014;6.678;2024-01-16T04:16:06;9.70;;;5.10;;
9880;SDS011;4979;51.014;6.678;2024-01-16T04:18:38;11.55;;;5.07;;
9880;SDS011;4979;51.014;6.678;2024-01-16T04:21:05;9.05;;;3.92;;
9880;SDS011;4979;51.014;6.678;2024-01-16T04:23:31;7.18;;;4.25;;
9880;SDS011;4979;51.014;6.678;2024-01-16T04:25:57;8.70;;;4.30;;
9880;SDS011;4979;51.014;6.678;2024-01-16T04:28:23;10.63;;;5.13;;
9880;SDS011;4979;51.014;6.678;2024-01-16T04:30:49;11.27;;;5.00;;
9880;SDS011;4979;51.014;6.678;2024-01-16T04:33:14;15.57;;;5.55;;
9880;SDS011;4979;51.014;6.678;2024-01-16T04:35:40;16.83;;;6.22;;
9880;SDS011;4979;51.014;6.678;2024-01-16T04:38:05;9.07;;;4.55;;
9880;SDS011;4979;51.014;6.678;2024-01-16T04:40:32;8.05;;;4.65;;
9880;SDS011;4979;51.014;6.678;2024-01-16T04:42:58;15.07;;;4.93;;
9880;SDS011;4979;51.014;6.678;2024-01-16T04:45:24;11.88;;;4.05;;
9880;SDS011;4979;51.014;6.678;2024-01-16T04:47:49;10.10;;;5.40;;
9880;SDS011;4979;51.014;6.678;2024-01-16T04:50:15;12.85;;;5.03;;
9880;SDS011;4979;51.014;6.678;2024-01-16T04:52:40;15.90;;;5.03;;
9880;SDS011;4979;51.014;6.678;2024-01-16T04:55:06;8.20;;;4.32;;
9880;SDS011;4979;51.014;6.678;2024-01-16T04:57:32;9.77;;;3.80;;
9880;SDS011;4979;51.014;6.678;2024-01-16T04:59:58;13.25;;;5.07;;
9880;SDS011;4979;51.014;6.678;2024-01-16T05:02:24;12.18;;;4.60;;
9880;SDS011;4979;51.014;6.678;2024-01-16T05:04:49;14.25;;;4.38;;
9880;SDS011;4979;51.014;6.678;2024-01-16T05:07:17;8.95;;;4.22;;
9880;SDS011;4979;51.014;6.678;2024-01-16T05:09:45;15.43;;;5.32;;
9880;SDS011;4979;51.014;6.678;2024-01-16T05:12:11;9.80;;;4.00;;
9880;SDS011;4979;51.014;6.678;2024-01-16T05:14:37;10.07;;;4.22;;
9880;SDS011;4979;51.014;6.678;2024-01-16T05:17:03;13.55;;;5.82;;
9880;SDS011;4979;51.014;6.678;2024-01-16T05:19:28;13.68;;;4.60;;
9880;SDS011;4979;51.014;6.678;2024-01-16T05:21:54;11.05;;;3.65;;
9880;SDS011;4979;51.014;6.678;2024-01-16T05:24:19;8.23;;;3.30;;
9880;SDS011;4979;51.014;6.678;2024-01-16T05:26:45;9.00;;;3.50;;
9880;SDS011;4979;51.014;6.678;2024-01-16T05:29:11;15.88;;;4.65;;
9880;SDS011;4979;51.014;6.678;2024-01-16T05:31:43;12.02;;;3.47;;
9880;SDS011;4979;51.014;6.678;2024-01-16T05:34:09;11.65;;;3.92;;
9880;SDS011;4979;51.014;6.678;2024-01-16T05:36:37;9.90;;;4.40;;
9880;SDS011;4979;51.014;6.678;2024-01-16T05:39:03;15.98;;;4.75;;
9880;SDS011;4979;51.014;6.678;2024-01-16T05:41:33;9.55;;;3.53;;
9880;SDS011;4979;51.014;6.678;2024-01-16T05:43:59;13.00;;;3.22;;
9880;SDS011;4979;51.014;6.678;2024-01-16T05:46:24;13.70;;;4.15;;
9880;SDS011;4979;51.014;6.678;2024-01-16T05:48:50;13.68;;;3.40;;
9880;SDS011;4979;51.014;6.678;2024-01-16T05:51:15;11.70;;;4.25;;
9880;SDS011;4979;51.014;6.678;2024-01-16T05:53:41;10.25;;;3.97;;
9880;SDS011;4979;51.014;6.678;2024-01-16T05:56:07;7.53;;;3.47;;
9880;SDS011;4979;51.014;6.678;2024-01-16T05:58:33;8.10;;;3.50;;
9880;SDS011;4979;51.014;6.678;2024-01-16T06:01:03;10.05;;;3.58;;
9880;SDS011;4979;51.014;6.678;2024-01-16T06:03:29;7.72;;;3.50;;
9880;SDS011;4979;51.014;6.678;2024-01-16T06:05:55;7.82;;;3.10;;
9880;SDS011;4979;51.014;6.678;2024-01-16T06:08:21;8.68;;;2.88;;
9880;SDS011;4979;51.014;6.678;2024-01-16T06:10:46;10.23;;;3.72;;
9880;SDS011;4979;51.014;6.678;2024-01-16T06:13:12;6.75;;;3.28;;
9880;SDS011;4979;51.014;6.678;2024-01-16T06:15:37;7.65;;;3.55;;
9880;SDS011;4979;51.014;6.678;2024-01-16T06:18:03;9.43;;;3.38;;
9880;SDS011;4979;51.014;6.678;2024-01-16T06:20:29;8.80;;;3.15;;
9880;SDS011;4979;51.014;6.678;2024-01-16T06:22:55;10.55;;;3.10;;
9880;SDS011;4979;51.014;6.678;2024-01-16T06:25:21;7.32;;;2.80;;
9880;SDS011;4979;51.014;6.678;2024-01-16T06:27:47;9.32;;;3.08;;
9880;SDS011;4979;51.014;6.678;2024-01-16T06:30:12;9.40;;;3.40;;
9880;SDS011;4979;51.014;6.678;2024-01-16T06:32:38;11.68;;;3.05;;
9880;SDS011;4979;51.014;6.678;2024-01-16T06:35:04;12.73;;;2.97;;
9880;SDS011;4979;51.014;6.678;2024-01-16T06:37:30;6.20;;;2.38;;
9880;SDS011;4979;51.014;6.678;2024-01-16T06:39:56;11.00;;;2.95;;
9880;SDS011;4979;51.014;6.678;2024-01-16T06:42:21;9.07;;;3.13;;
9880;SDS011;4979;51.014;6.678;2024-01-16T06:44:47;7.97;;;2.85;;
9880;SDS011;4979;51.014;6.678;2024-01-16T06:47:13;10.52;;;3.10;;
9880;SDS011;4979;51.014;6.678;2024-01-16T06:49:38;9.35;;;2.38;;
9880;SDS011;4979;51.014;6.678;2024-01-16T06:52:04;3.90;;;2.42;;
9880;SDS011;4979;51.014;6.678;2024-01-16T06:54:29;5.72;;;2.72;;
9880;SDS011;4979;51.014;6.678;2024-01-16T06:56:55;8.23;;;2.70;;
9880;SDS011;4979;51.014;6.678;2024-01-16T06:59:21;6.15;;;2.10;;
9880;SDS011;4979;51.014;6.678;2024-01-16T07:01:47;7.32;;;2.63;;
9880;SDS011;4979;51.014;6.678;2024-01-16T07:04:13;7.40;;;2.75;;
9880;SDS011;4979;51.014;6.678;2024-01-16T07:06:41;13.63;;;2.38;;
9880;SDS011;4979;51.014;6.678;2024-01-16T07:09:07;14.57;;;3.83;;
9880;SDS011;4979;51.014;6.678;2024-01-16T07:11:35;15.38;;;4.72;;
9880;SDS011;4979;51.014;6.678;2024-01-16T07:14:01;9.30;;;3.78;;
9880;SDS011;4979;51.014;6.678;2024-01-16T07:16:28;8.48;;;4.60;;
9880;SDS011;4979;51.014;6.678;2024-01-16T07:18:53;8.23;;;3.25;;
9880;SDS011;4979;51.014;6.678;2024-01-16T07:21:20;13.05;;;4.80;;
9880;SDS011;4979;51.014;6.678;2024-01-16T07:23:46;9.00;;;4.15;;
9880;SDS011;4979;51.014;6.678;2024-01-16T07:26:12;14.70;;;4.45;;
9880;SDS011;4979;51.014;6.678;2024-01-16T07:28:38;11.38;;;3.97;;
9880;SDS011;4979;51.014;6.678;2024-01-16T07:31:03;13.85;;;4.65;;
9880;SDS011;4979;51.014;6.678;2024-01-16T07:33:30;14.25;;;4.22;;
9880;SDS011;4979;51.014;6.678;2024-01-16T07:35:55;9.93;;;3.60;;
9880;SDS011;4979;51.014;6.678;2024-01-16T07:38:21;10.35;;;3.00;;
9880;SDS011;4979;51.014;6.678;2024-01-16T07:40:47;12.02;;;3.83;;
9880;SDS011;4979;51.014;6.678;2024-01-16T07:43:13;8.23;;;3.80;;
9880;SDS011;4979;51.014;6.678;2024-01-16T07:45:38;11.98;;;4.15;;
9880;SDS011;4979;51.014;6.678;2024-01-16T07:48:04;7.07;;;3.15;;
9880;SDS011;4979;51.014;6.678;2024-01-16T07:50:29;10.85;;;3.20;;
9880;SDS011;4979;51.014;6.678;2024-01-16T07:52:55;8.57;;;2.60;;
9880;SDS011;4979;51.014;6.678;2024-01-16T07:55:21;6.93;;;2.00;;
9880;SDS011;4979;51.014;6.678;2024-01-16T07:57:46;9.95;;;2.90;;
9880;SDS011;4979;51.014;6.678;2024-01-16T08:00:12;8.13;;;2.90;;
9880;SDS011;4979;51.014;6.678;2024-01-16T08:02:38;9.85;;;2.92;;
9880;SDS011;4979;51.014;6.678;2024-01-16T08:05:04;8.40;;;2.78;;
9880;SDS011;4979;51.014;6.678;2024-01-16T08:07:30;12.63;;;3.20;;
9880;SDS011;4979;51.014;6.678;2024-01-16T08:09:56;7.57;;;2.85;;
9880;SDS011;4979;51.014;6.678;2024-01-16T08:12:22;9.55;;;3.55;;
9880;SDS011;4979;51.014;6.678;2024-01-16T08:14:48;8.10;;;3.05;;
9880;SDS011;4979;51.014;6.678;2024-01-16T08:17:13;8.75;;;2.90;;
9880;SDS011;4979;51.014;6.678;2024-01-16T08:19:39;9.48;;;3.22;;
9880;SDS011;4979;51.014;6.678;2024-01-16T08:22:05;10.30;;;3.25;;
9880;SDS011;4979;51.014;6.678;2024-01-16T08:24:31;8.65;;;3.00;;
9880;SDS011;4979;51.014;6.678;2024-01-16T08:26:58;7.88;;;2.83;;
9880;SDS011;4979;51.014;6.678;2024-01-16T08:29:24;5.60;;;2.83;;
9880;SDS011;4979;51.014;6.678;2024-01-16T08:31:50;7.47;;;3.00;;
9880;SDS011;4979;51.014;6.678;2024-01-16T08:34:19;10.65;;;3.20;;
9880;SDS011;4979;51.014;6.678;2024-01-16T08:36:44;6.70;;;3.17;;
9880;SDS011;4979;51.014;6.678;2024-01-16T08:39:10;8.40;;;3.00;;
9880;SDS011;4979;51.014;6.678;2024-01-16T08:41:36;6.65;;;2.85;;
9880;SDS011;4979;51.014;6.678;2024-01-16T08:44:02;6.03;;;2.75;;
9880;SDS011;4979;51.014;6.678;2024-01-16T08:46:27;8.07;;;3.47;;
9880;SDS011;4979;51.014;6.678;2024-01-16T08:48:53;7.70;;;3.20;;
9880;SDS011;4979;51.014;6.678;2024-01-16T08:51:19;6.70;;;3.28;;
9880;SDS011;4979;51.014;6.678;2024-01-16T08:53:44;7.95;;;2.42;;
9880;SDS011;4979;51.014;6.678;2024-01-16T08:56:11;11.57;;;3.42;;
9880;SDS011;4979;51.014;6.678;2024-01-16T08:58:37;6.22;;;3.10;;
9880;SDS011;4979;51.014;6.678;2024-01-16T09:01:03;5.78;;;3.05;;
9880;SDS011;4979;51.014;6.678;2024-01-16T09:03:33;5.10;;;2.50;;
9880;SDS011;4979;51.014;6.678;2024-01-16T09:05:59;8.27;;;3.05;;
9880;SDS011;4979;51.014;6.678;2024-01-16T09:08:25;3.97;;;2.42;;
9880;SDS011;4979;51.014;6.678;2024-01-16T09:10:52;9.18;;;2.80;;
9880;SDS011;4979;51.014;6.678;2024-01-16T09:13:20;9.60;;;2.95;;
9880;SDS011;4979;51.014;6.678;2024-01-16T09:15:48;6.03;;;3.03;;
9880;SDS011;4979;51.014;6.678;2024-01-16T09:18:14;8.45;;;2.53;;
9880;SDS011;4979;51.014;6.678;2024-01-16T09:20:43;4.32;;;2.50;;
9880;SDS011;4979;51.014;6.678;2024-01-16T09:23:08;10.20;;;2.83;;
9880;SDS011;4979;51.014;6.678;2024-01-16T09:25:34;10.00;;;3.45;;
9880;SDS011;4979;51.014;6.678;2024-01-16T09:28:00;7.80;;;3.28;;
9880;SDS011;4979;51.014;6.678;2024-01-16T09:30:26;4.05;;;2.55;;
9880;SDS011;4979;51.014;6.678;2024-01-16T09:32:52;6.47;;;3.25;;
9880;SDS011;4979;51.014;6.678;2024-01-16T09:35:17;5.93;;;2.78;;
9880;SDS011;4979;51.014;6.678;2024-01-16T09:37:43;11.00;;;3.47;;
9880;SDS011;4979;51.014;6.678;2024-01-16T09:40:09;10.40;;;3.20;;
9880;SDS011;4979;51.014;6.678;2024-01-16T09:42:35;8.15;;;2.70;;
9880;SDS011;4979;51.014;6.678;2024-01-16T09:45:01;6.80;;;2.70;;
9880;SDS011;4979;51.014;6.678;2024-01-16T09:47:32;6.10;;;3.22;;
9880;SDS011;4979;51.014;6.678;2024-01-16T09:49:59;5.03;;;2.80;;
9880;SDS011;4979;51.014;6.678;2024-01-16T09:52:27;7.10;;;2.75;;
9880;SDS011;4979;51.014;6.678;2024-01-16T09:54:53;9.07;;;3.20;;
9880;SDS011;4979;51.014;6.678;2024-01-16T09:57:19;10.45;;;3.10;;
9880;SDS011;4979;51.014;6.678;2024-01-16T09:59:48;6.35;;;2.95;;
9880;SDS011;4979;51.014;6.678;2024-01-16T10:02:13;11.57;;;3.50;;
9880;SDS011;4979;51.014;6.678;2024-01-16T10:04:41;7.38;;;3.67;;
9880;SDS011;4979;51.014;6.678;2024-01-16T10:07:06;5.97;;;3.00;;
9880;SDS011;4979;51.014;6.678;2024-01-16T10:09:35;4.15;;;2.72;;
9880;SDS011;4979;51.014;6.678;2024-01-16T10:12:00;7.43;;;3.17;;
9880;SDS011;4979;51.014;6.678;2024-01-16T10:14:27;7.22;;;2.90;;
9880;SDS011;4979;51.014;6.678;2024-01-16T10:16:59;12.82;;;5.32;;
9880;SDS011;4979;51.014;6.678;2024-01-16T10:19:49;7.50;;;3.92;;
9880;SDS011;4979;51.014;6.678;2024-01-16T10:22:22;11.23;;;3.92;;
9880;SDS011;4979;51.014;6.678;2024-01-16T10:24:50;6.07;;;3.30;;
9880;SDS011;4979;51.014;6.678;2024-01-16T10:27:33;6.68;;;2.95;;
9880;SDS011;4979;51.014;6.678;2024-01-16T10:29:59;7.93;;;3.40;;
9880;SDS011;4979;51.014;6.678;2024-01-16T10:32:28;5.30;;;3.38;;
9880;SDS011;4979;51.014;6.678;2024-01-16T10:37:41;8.05;;;3.38;;
9880;SDS011;4979;51.014;6.678;2024-01-16T10:40:10;9.57;;;3.47;;
9880;SDS011;4979;51.014;6.678;2024-01-16T10:42:39;8.77;;;2.55;;
9880;SDS011;4979;51.014;6.678;2024-01-16T10:45:05;7.32;;;3.75;;
9880;SDS011;4979;51.014;6.678;2024-01-16T10:47:31;10.23;;;3.63;;
9880;SDS011;4979;51.014;6.678;2024-01-16T10:50:02;5.57;;;2.85;;
9880;SDS011;4979;51.014;6.678;2024-01-16T10:52:28;11.80;;;3.80;;
9880;SDS011;4979;51.014;6.678;2024-01-16T10:54:58;5.43;;;2.95;;
9880;SDS011;4979;51.014;6.678;2024-01-16T10:57:29;7.78;;;2.70;;
9880;SDS011;4979;51.014;6.678;2024-01-16T11:00:05;11.00;;;2.97;;
9880;SDS011;4979;51.014;6.678;2024-01-16T11:02:38;9.40;;;3.13;;
9880;SDS011;4979;51.014;6.678;2024-01-16T11:05:09;12.85;;;4.57;;
9880;SDS011;4979;51.014;6.678;2024-01-16T11:07:37;6.10;;;3.50;;
9880;SDS011;4979;51.014;6.678;2024-01-16T11:10:05;9.15;;;2.88;;
9880;SDS011;4979;51.014;6.678;2024-01-16T11:12:31;8.07;;;3.72;;
9880;SDS011;4979;51.014;6.678;2024-01-16T11:14:59;4.20;;;2.33;;
9880;SDS011;4979;51.014;6.678;2024-01-16T11:17:32;4.10;;;2.33;;
9880;SDS011;4979;51.014;6.678;2024-01-16T11:19:59;13.15;;;3.42;;
9880;SDS011;4979;51.014;6.678;2024-01-16T11:22:26;6.28;;;2.90;;
9880;SDS011;4979;51.014;6.678;2024-01-16T11:27:38;9.77;;;3.47;;
9880;SDS011;4979;51.014;6.678;2024-01-16T11:30:07;12.98;;;3.60;;
9880;SDS011;4979;51.014;6.678;2024-01-16T11:32:38;10.30;;;2.97;;
9880;SDS011;4979;51.014;6.678;2024-01-16T11:35:09;8.40;;;3.05;;
9880;SDS011;4979;51.014;6.678;2024-01-16T11:37:36;7.15;;;3.45;;
9880;SDS011;4979;51.014;6.678;2024-01-16T11:42:50;9.75;;;3.00;;
9880;SDS011;4979;51.014;6.678;2024-01-16T11:48:11;7.80;;;3.15;;
9880;SDS011;4979;51.014;6.678;2024-01-16T11:50:38;5.82;;;2.88;;
9880;SDS011;4979;51.014;6.678;2024-01-16T11:53:04;4.32;;;2.67;;
9880;SDS011;4979;51.014;6.678;2024-01-16T11:55:57;8.13;;;3.03;;
9880;SDS011;4979;51.014;6.678;2024-01-16T12:01:08;9.65;;;3.85;;
9880;SDS011;4979;51.014;6.678;2024-01-16T12:03:36;7.45;;;3.60;;
9880;SDS011;4979;51.014;6.678;2024-01-16T12:06:02;6.25;;;3.42;;
9880;SDS011;4979;51.014;6.678;2024-01-16T12:08:31;10.75;;;3.28;;
9880;SDS011;4979;51.014;6.678;2024-01-16T12:10:56;10.00;;;3.17;;
9880;SDS011;4979;51.014;6.678;2024-01-16T12:13:22;5.72;;;2.90;;
9880;SDS011;4979;51.014;6.678;2024-01-16T12:15:48;5.93;;;3.05;;
9880;SDS011;4979;51.014;6.678;2024-01-16T12:18:23;10.25;;;3.33;;
9880;SDS011;4979;51.014;6.678;2024-01-16T12:20:49;5.32;;;3.05;;
9880;SDS011;4979;51.014;6.678;2024-01-16T12:23:15;15.63;;;3.20;;
9880;SDS011;4979;51.014;6.678;2024-01-16T12:25:41;3.35;;;2.00;;
9880;SDS011;4979;51.014;6.678;2024-01-16T12:28:07;7.65;;;2.80;;
9880;SDS011;4979;51.014;6.678;2024-01-16T12:30:36;8.05;;;3.70;;
9880;SDS011;4979;51.014;6.678;2024-01-16T12:33:05;8.40;;;3.47;;
9880;SDS011;4979;51.014;6.678;2024-01-16T12:35:37;6.95;;;3.22;;
9880;SDS011;4979;51.014;6.678;2024-01-16T12:38:08;9.75;;;3.53;;
9880;SDS011;4979;51.014;6.678;2024-01-16T12:40:34;6.97;;;3.33;;
9880;SDS011;4979;51.014;6.678;2024-01-16T12:43:09;6.32;;;2.80;;
9880;SDS011;4979;51.014;6.678;2024-01-16T12:45:35;5.38;;;3.20;;
9880;SDS011;4979;51.014;6.678;2024-01-16T12:48:01;8.60;;;3.22;;
9880;SDS011;4979;51.014;6.678;2024-01-16T12:50:28;7.60;;;3.33;;
9880;SDS011;4979;51.014;6.678;2024-01-16T12:53:07;6.97;;;3.50;;
9880;SDS011;4979;51.014;6.678;2024-01-16T12:55:39;7.50;;;3.17;;
9880;SDS011;4979;51.014;6.678;2024-01-16T12:58:18;9.70;;;3.42;;
9880;SDS011;4979;51.014;6.678;2024-01-16T13:00:48;6.22;;;2.47;;
9880;SDS011;4979;51.014;6.678;2024-01-16T13:03:15;5.72;;;3.13;;
9880;SDS011;4979;51.014;6.678;2024-01-16T13:05:42;14.65;;;3.42;;
9880;SDS011;4979;51.014;6.678;2024-01-16T13:08:08;6.05;;;3.17;;
9880;SDS011;4979;51.014;6.678;2024-01-16T13:10:33;9.65;;;3.17;;
9880;SDS011;4979;51.014;6.678;2024-01-16T13:13:16;4.65;;;3.10;;
9880;SDS011;4979;51.014;6.678;2024-01-16T13:15:45;14.93;;;3.67;;
9880;SDS011;4979;51.014;6.678;2024-01-16T13:18:20;13.70;;;3.72;;
9880;SDS011;4979;51.014;6.678;2024-01-16T13:20:48;5.93;;;2.83;;
9880;SDS011;4979;51.014;6.678;2024-01-16T13:23:15;7.20;;;3.17;;
9880;SDS011;4979;51.014;6.678;2024-01-16T13:25:44;11.95;;;4.05;;
9880;SDS011;4979;51.014;6.678;2024-01-16T13:28:17;8.20;;;3.20;;
9880;SDS011;4979;51.014;6.678;2024-01-16T13:30:44;9.23;;;3.30;;
9880;SDS011;4979;51.014;6.678;2024-01-16T13:33:12;6.07;;;3.47;;
9880;SDS011;4979;51.014;6.678;2024-01-16T13:35:39;6.72;;;2.95;;
9880;SDS011;4979;51.014;6.678;2024-01-16T13:38:06;7.53;;;3.75;;
9880;SDS011;4979;51.014;6.678;2024-01-16T13:40:33;9.43;;;3.50;;
9880;SDS011;4979;51.014;6.678;2024-01-16T13:42:59;10.10;;;3.88;;
9880;SDS011;4979;51.014;6.678;2024-01-16T13:45:25;9.48;;;4.15;;
9880;SDS011;4979;51.014;6.678;2024-01-16T13:47:51;9.10;;;3.75;;
9880;SDS011;4979;51.014;6.678;2024-01-16T13:50:17;10.27;;;3.20;;
9880;SDS011;4979;51.014;6.678;2024-01-16T13:52:42;9.60;;;3.50;;
9880;SDS011;4979;51.014;6.678;2024-01-16T13:55:09;8.88;;;3.25;;
9880;SDS011;4979;51.014;6.678;2024-01-16T13:57:35;11.00;;;3.50;;
9880;SDS011;4979;51.014;6.678;2024-01-16T14:00:04;8.52;;;3.70;;
9880;SDS011;4979;51.014;6.678;2024-01-16T14:02:31;4.70;;;2.90;;
9880;SDS011;4979;51.014;6.678;2024-01-16T14:04:59;10.52;;;3.92;;
9880;SDS011;4979;51.014;6.678;2024-01-16T14:07:25;5.10;;;3.33;;
9880;SDS011;4979;51.014;6.678;2024-01-16T14:09:51;6.93;;;3.63;;
9880;SDS011;4979;51.014;6.678;2024-01-16T14:12:17;6.95;;;3.10;;
9880;SDS011;4979;51.014;6.678;2024-01-16T14:14:44;13.60;;;3.80;;
9880;SDS011;4979;51.014;6.678;2024-01-16T14:17:09;6.05;;;3.15;;
9880;SDS011;4979;51.014;6.678;2024-01-16T14:19:35;7.75;;;3.10;;
9880;SDS011;4979;51.014;6.678;2024-01-16T14:22:01;13.25;;;4.10;;
9880;SDS011;4979;51.014;6.678;2024-01-16T14:24:27;11.05;;;4.28;;
9880;SDS011;4979;51.014;6.678;2024-01-16T14:26:52;12.07;;;4.22;;
9880;SDS011;4979;51.014;6.678;2024-01-16T14:29:18;7.82;;;3.47;;
9880;SDS011;4979;51.014;6.678;2024-01-16T14:31:44;6.30;;;3.58;;
9880;SDS011;4979;51.014;6.678;2024-01-16T14:34:13;11.70;;;4.57;;
9880;SDS011;4979;51.014;6.678;2024-01-16T14:36:39;10.75;;;4.05;;
9880;SDS011;4979;51.014;6.678;2024-01-16T14:39:06;7.82;;;3.85;;
9880;SDS011;4979;51.014;6.678;2024-01-16T14:41:34;11.35;;;3.35;;
9880;SDS011;4979;51.014;6.678;2024-01-16T14:44:01;6.50;;;3.60;;
9880;SDS011;4979;51.014;6.678;2024-01-16T14:46:26;11.48;;;3.58;;
9880;SDS011;4979;51.014;6.678;2024-01-16T14:48:52;9.43;;;3.75;;
9880;SDS011;4979;51.014;6.678;2024-01-16T14:51:17;13.98;;;4.97;;
9880;SDS011;4979;51.014;6.678;2024-01-16T14:53:43;9.38;;;3.63;;
9880;SDS011;4979;51.014;6.678;2024-01-16T14:56:08;8.00;;;4.40;;
9880;SDS011;4979;51.014;6.678;2024-01-16T14:58:35;6.45;;;3.85;;
9880;SDS011;4979;51.014;6.678;2024-01-16T15:01:00;9.38;;;4.57;;
9880;SDS011;4979;51.014;6.678;2024-01-16T15:03:26;14.45;;;4.35;;
9880;SDS011;4979;51.014;6.678;2024-01-16T15:05:51;16.00;;;4.25;;
9880;SDS011;4979;51.014;6.678;2024-01-16T15:08:20;9.77;;;3.92;;
9880;SDS011;4979;51.014;6.678;2024-01-16T15:10:46;9.98;;;3.95;;
9880;SDS011;4979;51.014;6.678;2024-01-16T15:13:12;15.35;;;5.10;;
9880;SDS011;4979;51.014;6.678;2024-01-16T15:15:38;9.90;;;4.05;;
9880;SDS011;4979;51.014;6.678;2024-01-16T15:18:04;12.43;;;4.55;;
9880;SDS011;4979;51.014;6.678;2024-01-16T15:20:29;10.18;;;3.90;;